Time;durP1;ratioP1;P1;durP2;ratioP2;P2;SDS_P1;SDS_P2;PMS_P1;PMS_P2;Temp;Humidity;BMP_temperature;BMP_pressure;BME280_temperature;BME280_humidity;BME280_pressure;Samples;Min_cycle;Max_cycle;Signal;HPM_P1;HPM_P2
2022/11/06 00:02:11;;;;;;;6.70;4.97;;;;;;;3.82;97.09;95882.47;4962754;28;20213;-81
2022/11/06 00:04:36;;;;;;;13.33;5.00;;;;;;;3.78;97.86;95875.88;4944039;28;20685;-82
2022/11/06 00:07:02;;;;;;;6.40;4.67;;;;;;;3.79;97.72;95880.09;4975080;28;20195;-82
2022/11/06 00:09:27;;;;;;;7.73;5.03;;;;;;;3.75;98.23;95878.66;4972803;28;20220;-83
2022/11/06 00:11:52;;;;;;;9.33;5.30;;;;;;;3.70;98.08;95900.28;4977761;28;20899;-83
2022/11/06 00:14:18;;;;;;;5.83;4.83;;;;;;;3.69;98.37;95897.81;4971734;28;20195;-81
2022/11/06 00:16:44;;;;;;;7.60;5.20;;;;;;;3.75;98.06;95899.19;4958583;28;20192;-83
2022/11/06 00:19:10;;;;;;;7.70;5.20;;;;;;;3.73;97.76;95890.78;4978039;28;20194;-83
2022/11/06 00:21:35;;;;;;;7.47;5.30;;;;;;;3.78;97.43;95881.00;4976601;28;20303;-82
2022/11/06 00:24:03;;;;;;;7.23;5.10;;;;;;;3.79;97.28;95878.34;4972710;28;20189;-82
2022/11/06 00:26:29;;;;;;;4.93;4.43;;;;;;;3.83;97.09;95878.97;4971191;28;20649;-82
2022/11/06 00:28:55;;;;;;;6.70;4.53;;;;;;;3.82;97.27;95883.28;4966211;28;20820;-81
2022/11/06 00:31:22;;;;;;;7.87;5.30;;;;;;;3.85;97.04;95892.53;4947243;28;20283;-82
2022/11/06 00:33:48;;;;;;;5.17;4.43;;;;;;;3.84;97.26;95898.59;4959863;28;20332;-81
2022/11/06 00:36:16;;;;;;;6.63;5.00;;;;;;;3.80;97.08;95897.13;4961125;28;20244;-82
2022/11/06 00:38:41;;;;;;;7.07;4.80;;;;;;;3.78;97.08;95904.13;4990690;28;20193;-82
2022/11/06 00:41:09;;;;;;;6.60;5.70;;;;;;;3.69;96.86;95908.91;4969814;28;20216;-82
2022/11/06 00:43:34;;;;;;;7.73;5.27;;;;;;;3.70;97.03;95913.13;4966562;28;20185;-81
2022/11/06 00:46:04;;;;;;;8.03;6.00;;;;;;;3.66;97.05;95910.88;4965470;28;20598;-82
2022/11/06 00:48:30;;;;;;;10.30;7.33;;;;;;;3.61;97.13;95912.91;4976766;28;20217;-82
2022/11/06 00:51:03;;;;;;;8.43;5.83;;;;;;;3.56;97.41;95904.66;4976567;28;20227;-82
2022/11/06 00:53:28;;;;;;;8.37;5.37;;;;;;;3.54;97.72;95902.22;4971314;28;20553;-81
2022/11/06 00:55:54;;;;;;;5.57;4.87;;;;;;;3.51;97.15;95904.94;4960577;28;20199;-82
2022/11/06 00:58:19;;;;;;;7.67;4.90;;;;;;;3.51;97.85;95901.56;4969805;28;20188;-82
2022/11/06 01:00:44;;;;;;;7.53;4.37;;;;;;;3.40;98.07;95897.91;4974709;28;20208;-82
2022/11/06 01:03:09;;;;;;;6.53;5.00;;;;;;;3.36;98.96;95905.91;4977422;28;20188;-82
2022/11/06 01:05:35;;;;;;;5.50;4.57;;;;;;;3.51;98.06;95904.13;4975143;28;20191;-82
2022/11/06 01:08:00;;;;;;;6.57;5.00;;;;;;;3.44;97.59;95901.09;4973101;28;20221;-82
2022/11/06 01:10:25;;;;;;;7.53;4.70;;;;;;;3.46;97.74;95891.59;4971098;28;20211;-82
2022/11/06 01:12:51;;;;;;;6.33;4.10;;;;;;;3.45;98.23;95894.25;4977455;28;20200;-82
2022/11/06 01:15:16;;;;;;;7.57;4.77;;;;;;;3.47;97.99;95897.53;4969378;28;20235;-83
2022/11/06 01:17:41;;;;;;;5.90;4.10;;;;;;;3.40;98.06;95891.97;4967177;28;20192;-81
2022/11/06 01:20:07;;;;;;;8.27;4.53;;;;;;;3.48;97.94;95894.06;4944955;28;20665;-82
2022/11/06 01:22:32;;;;;;;9.97;5.40;;;;;;;3.49;97.83;95898.25;4981893;28;20198;-83
2022/11/06 01:24:58;;;;;;;8.77;5.43;;;;;;;3.50;97.61;95898.16;4955238;28;20204;-83
2022/11/06 01:27:23;;;;;;;9.73;4.87;;;;;;;3.48;97.73;95887.19;4986181;28;20192;-83
2022/11/06 01:29:48;;;;;;;6.93;3.77;;;;;;;3.49;97.15;95893.94;4954968;28;20200;-81
2022/11/06 01:32:13;;;;;;;6.83;4.50;;;;;;;3.43;97.22;95884.06;4961618;28;20371;-81
2022/11/06 01:34:39;;;;;;;4.20;3.70;;;;;;;3.48;97.38;95881.22;4943812;28;20185;-82
2022/11/06 01:37:04;;;;;;;6.80;3.87;;;;;;;3.44;97.38;95872.88;4963202;28;20201;-82
2022/11/06 01:39:30;;;;;;;5.73;3.67;;;;;;;3.49;96.76;95881.13;4949617;28;20186;-82
2022/11/06 01:41:55;;;;;;;7.40;4.10;;;;;;;3.47;97.18;95875.25;4969684;28;20205;-83
2022/11/06 01:44:32;;;;;;;4.23;3.60;;;;;;;3.45;96.94;95877.09;4972015;28;20195;-82
2022/11/06 01:46:59;;;;;;;4.10;3.57;;;;;;;3.41;97.07;95876.47;4967674;28;20195;-82
2022/11/06 01:49:25;;;;;;;6.80;3.60;;;;;;;3.40;97.14;95879.94;4977025;28;20320;-83
2022/11/06 01:51:56;;;;;;;7.10;3.93;;;;;;;3.38;97.26;95878.41;4973651;28;20207;-81
2022/11/06 01:54:24;;;;;;;6.60;3.93;;;;;;;3.29;97.69;95884.94;4970980;28;20296;-80
2022/11/06 01:56:51;;;;;;;6.90;3.67;;;;;;;3.23;98.14;95880.16;4973822;28;20231;-82
2022/11/06 01:59:17;;;;;;;6.33;3.70;;;;;;;3.31;97.11;95877.13;4963953;28;20188;-81
2022/11/06 02:01:43;;;;;;;4.97;3.80;;;;;;;3.25;97.43;95880.88;4968371;28;20220;-82
2022/11/06 02:04:13;;;;;;;6.40;3.73;;;;;;;3.24;97.79;95868.97;4977386;28;20195;-82
2022/11/06 02:06:38;;;;;;;8.00;3.90;;;;;;;3.16;98.24;95870.38;4962094;28;20190;-83
2022/11/06 02:09:10;;;;;;;7.90;3.63;;;;;;;3.22;98.60;95864.88;4965469;28;20218;-82
2022/11/06 02:11:38;;;;;;;5.67;3.60;;;;;;;3.26;98.02;95863.75;4967845;28;20692;-82
2022/11/06 02:14:15;;;;;;;5.20;3.33;;;;;;;3.32;97.13;95871.06;4972456;28;20200;-83
2022/11/06 02:16:51;;;;;;;5.53;3.23;;;;;;;3.30;97.23;95867.78;4973767;28;20202;-82
2022/11/06 02:19:48;;;;;;;7.37;3.63;;;;;;;3.26;97.36;95859.44;4979461;28;20184;-83
2022/11/06 02:22:59;;;;;;;6.43;3.63;;;;;;;3.31;96.99;95848.91;4887291;29;20359;-82
2022/11/06 02:25:52;;;;;;;4.37;3.20;;;;;;;3.30;96.38;95839.56;4893312;29;20239;-83
2022/11/06 02:28:25;;;;;;;3.80;3.20;;;;;;;3.19;96.54;95840.22;4885408;29;20636;-82
2022/11/06 02:30:51;;;;;;;5.97;3.50;;;;;;;3.08;96.98;95817.78;4871948;29;20247;-82
2022/11/06 02:33:38;;;;;;;4.50;3.30;;;;;;;3.16;97.07;95817.31;4887897;29;20202;-82
2022/11/06 02:36:08;;;;;;;3.93;3.20;;;;;;;3.08;96.77;95807.50;4871668;29;20281;-83
2022/11/06 02:38:38;;;;;;;6.77;3.43;;;;;;;3.06;97.05;95809.34;4875936;29;20211;-82
2022/11/06 02:41:05;;;;;;;6.30;3.77;;;;;;;3.09;98.04;95801.50;4903282;29;20225;-83
2022/11/06 02:43:38;;;;;;;5.60;4.20;;;;;;;3.17;98.91;95802.72;4888054;29;20237;-82
2022/11/06 02:46:26;;;;;;;6.87;4.53;;;;;;;3.28;98.28;95787.50;4902730;29;20227;-83
2022/11/06 02:48:56;;;;;;;7.07;4.37;;;;;;;3.33;98.39;95785.44;4889826;29;20650;-82
2022/11/06 02:51:25;;;;;;;5.03;3.97;;;;;;;3.34;97.68;95787.09;4871228;29;20317;-82
2022/11/06 02:53:51;;;;;;;6.17;4.53;;;;;;;3.25;98.61;95777.41;4887584;29;20199;-83
2022/11/06 02:56:19;;;;;;;5.47;4.23;;;;;;;3.33;98.16;95781.13;4870636;29;20195;-83
2022/11/06 02:58:50;;;;;;;6.10;3.87;;;;;;;3.34;97.93;95776.81;4955845;28;20197;-82
2022/11/06 03:01:30;;;;;;;6.27;4.10;;;;;;;3.30;98.26;95780.53;4979363;28;20277;-83
2022/11/06 03:04:00;;;;;;;4.77;3.97;;;;;;;3.25;99.05;95779.97;4978902;28;20190;-83
2022/11/06 03:06:30;;;;;;;6.80;4.13;;;;;;;3.30;98.59;95780.53;4975976;28;20195;-82
2022/11/06 03:09:19;;;;;;;5.30;4.17;;;;;;;3.36;98.12;95790.41;4956942;28;20219;-83
2022/11/06 03:11:53;;;;;;;8.73;4.20;;;;;;;3.32;98.55;95786.38;4970121;28;20312;-84
2022/11/06 03:14:25;;;;;;;7.53;4.97;;;;;;;3.35;98.16;95788.72;4949536;28;20282;-82
2022/11/06 03:16:59;;;;;;;7.20;4.33;;;;;;;3.31;98.39;95777.84;4975945;28;20233;-83
2022/11/06 03:19:28;;;;;;;6.40;4.13;;;;;;;3.29;98.73;95776.31;4978085;28;20184;-82
2022/11/06 03:22:09;;;;;;;5.37;4.33;;;;;;;3.24;98.90;95774.03;4974482;28;20204;-82
2022/11/06 03:24:43;;;;;;;7.13;3.80;;;;;;;3.22;99.01;95765.59;4961441;28;20270;-83
2022/11/06 03:27:21;;;;;;;4.20;3.73;;;;;;;3.29;98.75;95763.47;4975050;28;20207;-83
2022/11/06 03:30:00;;;;;;;5.40;4.43;;;;;;;3.12;98.74;95752.53;4976958;28;20621;-82
2022/11/06 03:32:30;;;;;;;9.03;4.77;;;;;;;3.19;98.79;95747.03;4945413;28;20192;-83
2022/11/06 03:35:05;;;;;;;6.17;4.33;;;;;;;3.23;98.94;95749.28;4962911;28;20813;-82
2022/11/06 03:37:35;;;;;;;4.77;4.27;;;;;;;3.25;99.03;95754.31;4978225;28;20227;-82
2022/11/06 03:40:03;;;;;;;7.40;4.23;;;;;;;3.16;99.79;95755.72;4971118;28;20191;-81
2022/11/06 03:42:30;;;;;;;6.00;4.30;;;;;;;3.10;99.86;95762.06;4973824;28;20192;-82
2022/11/06 03:44:58;;;;;;;6.53;4.70;;;;;;;3.08;100.00;95753.63;4979358;28;20282;-82
2022/11/06 03:47:35;;;;;;;8.37;4.93;;;;;;;3.20;99.15;95739.22;4976255;28;20721;-82
2022/11/06 03:50:08;;;;;;;7.13;4.50;;;;;;;3.25;98.71;95731.22;4972740;28;20188;-82
2022/11/06 03:52:37;;;;;;;5.57;4.00;;;;;;;3.24;98.32;95740.66;4988325;28;20194;-82
2022/11/06 03:55:14;;;;;;;5.87;3.87;;;;;;;3.19;98.43;95740.16;4975889;28;20194;-80
2022/11/06 03:57:44;;;;;;;6.33;4.80;;;;;;;3.19;98.58;95727.31;4966155;28;20185;-83
2022/11/06 04:00:10;;;;;;;5.17;4.37;;;;;;;3.13;98.57;95728.50;4946760;28;20216;-82
2022/11/06 04:02:38;;;;;;;5.30;3.83;;;;;;;3.10;98.76;95723.59;4960832;28;20736;-83
2022/11/06 04:05:09;;;;;;;7.77;3.90;;;;;;;3.08;98.54;95725.41;4974591;28;20192;-83
2022/11/06 04:07:38;;;;;;;5.70;3.80;;;;;;;3.10;98.70;95718.47;4972526;28;20220;-82
2022/11/06 04:15:45;;;;;;;6.23;3.80;;;;;;;3.16;99.14;95718.97;4977503;28;20198;-82
2022/11/06 04:18:12;;;;;;;5.63;3.60;;;;;;;3.24;98.46;95720.13;4979432;28;20681;-82
2022/11/06 04:21:26;;;;;;;5.10;3.90;;;;;;;3.21;98.96;95715.19;4974939;28;20263;-82
2022/11/06 04:23:43;;;;;;;5.00;3.80;;;;;;;3.27;97.77;95719.09;4962061;28;20208;-83
2022/11/06 04:26:36;;;;;;;5.60;3.77;;;;;;;3.32;97.26;95711.94;4968428;28;20197;-82
2022/11/06 04:29:02;;;;;;;3.83;3.13;;;;;;;3.19;96.88;95713.66;4975537;28;21093;-81
2022/11/06 04:31:40;;;;;;;4.63;3.93;;;;;;;3.19;97.14;95711.91;4961380;28;20736;-81
2022/11/06 04:34:16;;;;;;;6.43;3.77;;;;;;;3.18;96.96;95707.72;4962256;28;20662;-82
2022/11/06 04:36:45;;;;;;;7.27;4.13;;;;;;;3.00;97.72;95701.16;4974989;28;20215;-84
2022/11/06 04:39:32;;;;;;;6.47;4.37;;;;;;;2.98;98.48;95688.44;4969509;28;20653;-84
2022/11/06 04:42:31;;;;;;;6.10;4.20;;;;;;;2.96;99.51;95699.72;4993906;28;20255;-84
2022/11/06 04:45:07;;;;;;;6.23;4.07;;;;;;;3.02;99.24;95705.28;4977421;28;20235;-84
2022/11/06 04:47:33;;;;;;;6.23;4.60;;;;;;;2.94;98.81;95707.53;4963102;28;20219;-82
2022/11/06 04:50:00;;;;;;;6.73;4.00;;;;;;;3.01;98.44;95705.41;4977324;28;20193;-83
2022/11/06 04:52:27;;;;;;;6.97;4.20;;;;;;;2.96;98.34;95715.94;4971592;28;20715;-83
2022/11/06 04:54:53;;;;;;;5.90;4.30;;;;;;;2.89;98.95;95704.41;4968000;28;20273;-83
2022/11/06 04:57:20;;;;;;;6.07;4.70;;;;;;;2.97;98.99;95704.75;4948946;28;20187;-83
2022/11/06 04:59:45;;;;;;;7.87;3.80;;;;;;;3.00;99.40;95707.09;4945519;28;20752;-83
2022/11/06 05:02:10;;;;;;;6.90;3.97;;;;;;;3.08;98.88;95707.44;4944330;28;20217;-83
2022/11/06 05:04:36;;;;;;;6.80;3.80;;;;;;;3.07;98.77;95703.25;4946018;28;20623;-83
2022/11/06 05:07:01;;;;;;;6.37;4.00;;;;;;;3.09;98.83;95716.81;4967137;28;20204;-84
2022/11/06 05:09:26;;;;;;;6.03;3.97;;;;;;;3.11;98.60;95714.16;4968574;28;20217;-82
2022/11/06 05:11:51;;;;;;;4.63;4.00;;;;;;;3.13;99.15;95713.13;4972841;28;20211;-83
2022/11/06 05:14:17;;;;;;;7.37;4.10;;;;;;;3.10;98.07;95713.31;4975778;28;20192;-83
2022/11/06 05:16:42;;;;;;;4.67;3.63;;;;;;;3.09;98.02;95718.53;4961087;28;20192;-83
2022/11/06 05:19:07;;;;;;;5.90;4.03;;;;;;;3.13;98.54;95720.81;4974759;28;20255;-84
2022/11/06 05:24:16;;;;;;;5.63;3.97;;;;;;;3.07;97.65;95707.53;4967853;28;20591;-82
2022/11/06 05:26:42;;;;;;;5.60;3.30;;;;;;;3.05;97.92;95699.94;4965180;28;20196;-84
2022/11/06 05:29:07;;;;;;;4.87;3.33;;;;;;;3.06;97.95;95695.66;4962232;28;20205;-83
2022/11/06 05:31:32;;;;;;;6.57;3.77;;;;;;;2.97;97.51;95681.66;4959498;28;20713;-84
2022/11/06 05:33:58;;;;;;;6.67;3.87;;;;;;;2.98;97.85;95677.34;4963226;28;20197;-84
2022/11/06 05:36:23;;;;;;;3.83;3.10;;;;;;;2.94;97.88;95683.63;4966497;28;20255;-83
2022/11/06 05:38:48;;;;;;;10.60;3.83;;;;;;;2.83;97.29;95692.81;4969417;28;20184;-84
2022/11/06 05:41:14;;;;;;;6.70;3.50;;;;;;;2.86;97.28;95711.50;4956494;28;20717;-84
2022/11/06 05:43:39;;;;;;;5.50;2.83;;;;;;;2.93;96.23;95711.00;4978240;28;20647;-82
2022/11/06 05:46:04;;;;;;;5.47;3.33;;;;;;;2.99;95.30;95707.22;4977291;28;20193;-84
2022/11/06 05:48:30;;;;;;;4.67;2.90;;;;;;;3.08;94.61;95706.63;4978167;28;20216;-83
2022/11/06 05:51:03;;;;;;;4.43;2.53;;;;;;;3.05;93.99;95706.84;4971695;28;20217;-84
2022/11/06 05:53:30;;;;;;;5.40;2.80;;;;;;;3.02;93.97;95715.56;4979941;28;20184;-84
2022/11/06 05:55:55;;;;;;;2.60;2.40;;;;;;;2.93;94.30;95721.28;4968890;28;20193;-83
2022/11/06 05:58:21;;;;;;;4.77;2.80;;;;;;;2.89;94.38;95719.81;4965974;28;20238;-84
2022/11/06 06:00:46;;;;;;;3.43;2.60;;;;;;;2.90;92.72;95707.78;4963119;28;20205;-83
2022/11/06 06:03:11;;;;;;;4.70;3.20;;;;;;;3.02;92.58;95710.41;4971727;28;20639;-82
2022/11/06 06:05:37;;;;;;;4.67;3.70;;;;;;;2.91;92.81;95694.03;4976042;28;20189;-84
2022/11/06 06:08:03;;;;;;;3.90;3.23;;;;;;;2.96;91.98;95695.41;4982148;28;20215;-84
2022/11/06 06:10:28;;;;;;;6.40;2.87;;;;;;;2.97;92.02;95698.78;4969847;28;20211;-83
2022/11/06 06:12:54;;;;;;;2.33;2.10;;;;;;;2.92;92.03;95688.03;4950603;28;20192;-81
2022/11/06 06:15:19;;;;;;;2.87;2.30;;;;;;;2.87;92.67;95683.16;4962798;28;20192;-83
2022/11/06 06:17:45;;;;;;;4.13;2.40;;;;;;;2.86;92.71;95673.84;4964952;28;20180;-83
2022/11/06 06:20:11;;;;;;;4.60;2.40;;;;;;;2.88;92.26;95669.44;4968996;28;20195;-84
2022/11/06 06:22:36;;;;;;;3.30;2.27;;;;;;;2.82;91.42;95682.63;4971853;28;20700;-83
2022/11/06 06:25:01;;;;;;;6.70;2.70;;;;;;;2.77;92.16;95689.81;4973413;28;20200;-83
2022/11/06 06:27:26;;;;;;;4.83;2.40;;;;;;;2.67;92.76;95691.31;4979038;28;20196;-83
2022/11/06 06:29:53;;;;;;;6.13;2.87;;;;;;;2.57;93.62;95678.25;4981059;28;20200;-84
2022/11/06 06:32:18;;;;;;;4.77;2.63;;;;;;;2.54;93.68;95668.97;4979506;28;20212;-84
2022/11/06 06:34:43;;;;;;;2.97;2.50;;;;;;;2.57;93.07;95659.47;4976188;28;20581;-83
2022/11/06 06:37:08;;;;;;;5.33;2.90;;;;;;;2.54;93.33;95663.84;4973134;28;20202;-84
2022/11/06 06:39:34;;;;;;;4.17;3.30;;;;;;;2.57;93.18;95662.03;4986092;28;20530;-83
2022/11/06 06:41:59;;;;;;;4.63;2.90;;;;;;;2.52;93.49;95663.13;4967318;28;20616;-84
2022/11/06 06:44:24;;;;;;;6.63;3.27;;;;;;;2.51;93.52;95648.69;4947944;28;20191;-82
2022/11/06 06:46:50;;;;;;;4.43;3.30;;;;;;;2.58;92.77;95656.00;4964535;28;20189;-84
2022/11/06 06:49:15;;;;;;;6.43;3.30;;;;;;;2.62;93.08;95650.56;4967599;28;20579;-83
2022/11/06 06:51:40;;;;;;;6.43;3.40;;;;;;;2.64;92.65;95645.31;4978691;28;20205;-82
2022/11/06 06:54:05;;;;;;;4.57;3.50;;;;;;;2.66;92.40;95638.38;4990804;28;20179;-81
2022/11/06 06:56:31;;;;;;;4.37;3.33;;;;;;;2.67;91.85;95633.16;4993240;28;20260;-81
2022/11/06 06:58:56;;;;;;;4.03;3.03;;;;;;;2.74;92.27;95633.56;4980711;28;20192;-82
2022/11/06 07:01:22;;;;;;;5.93;3.37;;;;;;;2.73;92.38;95631.91;4997065;28;20191;-82
2022/11/06 07:03:47;;;;;;;7.30;2.97;;;;;;;2.75;92.00;95620.66;4993678;28;20202;-81
2022/11/06 07:06:12;;;;;;;5.60;2.87;;;;;;;2.76;93.27;95619.75;4990380;28;20173;-82
2022/11/06 07:08:38;;;;;;;8.57;3.77;;;;;;;2.84;92.82;95609.00;4988449;28;20228;-81
2022/11/06 07:11:07;;;;;;;3.80;3.30;;;;;;;2.90;92.41;95603.44;4974723;28;20212;-81
2022/11/06 07:13:33;;;;;;;3.73;3.37;;;;;;;2.86;92.54;95599.44;4989034;28;20554;-84
2022/11/06 07:16:05;;;;;;;6.97;3.20;;;;;;;2.86;92.05;95598.63;4979357;28;20196;-81
2022/11/06 07:18:30;;;;;;;6.97;3.40;;;;;;;2.81;92.16;95588.66;4993364;28;20180;-82
2022/11/06 07:20:55;;;;;;;4.17;3.27;;;;;;;2.82;92.60;95580.03;4991044;28;20196;-81
2022/11/06 07:23:20;;;;;;;3.20;2.90;;;;;;;2.81;92.62;95580.97;4988645;28;20329;-80
2022/11/06 07:25:51;;;;;;;4.77;3.50;;;;;;;2.82;92.16;95577.47;4983968;28;20185;-80
2022/11/06 07:28:17;;;;;;;5.90;3.30;;;;;;;2.83;92.80;95569.72;4981117;28;20198;-81
2022/11/06 07:30:42;;;;;;;7.20;3.53;;;;;;;2.84;93.09;95571.34;4979765;28;20229;-82
2022/11/06 07:33:07;;;;;;;3.97;3.63;;;;;;;2.84;93.49;95570.53;4991995;28;20240;-81
2022/11/06 07:35:34;;;;;;;4.10;3.63;;;;;;;2.88;92.96;95561.69;4985881;28;20261;-81
2022/11/06 07:38:02;;;;;;;12.63;8.73;;;;;;;2.94;93.20;95565.63;4989394;28;20850;-82
2022/11/06 07:40:27;;;;;;;17.27;12.07;;;;;;;2.96;93.07;95564.59;4984182;28;20200;-80
2022/11/06 07:42:52;;;;;;;5.97;4.60;;;;;;;3.10;93.34;95553.41;4963158;28;20197;-78
2022/11/06 07:45:18;;;;;;;4.47;4.07;;;;;;;3.10;92.39;95554.25;4962915;28;20179;-81
2022/11/06 07:47:43;;;;;;;7.47;4.27;;;;;;;3.16;92.97;95552.16;4966198;28;20219;-81
2022/11/06 07:50:08;;;;;;;6.40;4.33;;;;;;;3.32;92.45;95557.94;4986029;28;20313;-81
2022/11/06 07:52:34;;;;;;;9.07;4.93;;;;;;;3.29;91.97;95558.13;4959476;28;20189;-81
2022/11/06 07:54:59;;;;;;;6.23;4.17;;;;;;;3.30;92.06;95552.09;4980255;28;20176;-82
2022/11/06 07:57:24;;;;;;;4.07;3.63;;;;;;;3.44;91.83;95546.00;4975945;28;20189;-80
2022/11/06 07:59:50;;;;;;;5.00;4.00;;;;;;;3.49;92.01;95546.53;4976045;28;20188;-82
2022/11/06 08:02:16;;;;;;;7.03;4.20;;;;;;;3.58;91.43;95545.88;4963557;28;20279;-81
2022/11/06 08:04:41;;;;;;;5.77;5.17;;;;;;;3.47;92.66;95549.19;4989724;28;20277;-80
2022/11/06 08:07:07;;;;;;;5.83;4.47;;;;;;;3.48;93.11;95552.59;4987083;28;20179;-81
2022/11/06 08:09:32;;;;;;;5.47;4.47;;;;;;;3.64;92.40;95548.88;4967204;28;20227;-81
2022/11/06 08:11:57;;;;;;;7.13;5.00;;;;;;;3.78;91.97;95552.22;4964448;28;20220;-81
2022/11/06 08:14:24;;;;;;;7.00;5.03;;;;;;;3.80;92.64;95555.50;4961412;28;20217;-81
2022/11/06 08:16:49;;;;;;;7.63;4.47;;;;;;;4.05;91.82;95549.47;4979637;28;20183;-80
2022/11/06 08:19:14;;;;;;;7.33;5.00;;;;;;;4.10;91.32;95552.56;4966407;28;20187;-81
2022/11/06 08:21:40;;;;;;;6.50;5.10;;;;;;;4.14;90.60;95552.22;4986044;28;20224;-80
2022/11/06 08:24:05;;;;;;;6.17;4.87;;;;;;;4.04;91.69;95556.34;4988651;28;20214;-81
2022/11/06 08:26:31;;;;;;;8.13;5.10;;;;;;;4.09;91.65;95551.72;4991907;28;20186;-80
2022/11/06 08:28:56;;;;;;;8.77;4.80;;;;;;;4.23;91.65;95545.59;4975092;28;20259;-80
2022/11/06 08:31:22;;;;;;;6.97;5.40;;;;;;;4.26;91.18;95546.22;4978155;28;20215;-80
2022/11/06 08:33:47;;;;;;;9.03;5.77;;;;;;;4.49;90.13;95554.03;4991178;28;20176;-80
2022/11/06 08:36:12;;;;;;;8.17;6.57;;;;;;;4.58;90.50;95535.34;4991543;28;20208;-81
2022/11/06 08:38:38;;;;;;;8.20;6.30;;;;;;;4.67;90.99;95539.81;4992426;28;20193;-81
2022/11/06 08:41:05;;;;;;;11.40;7.10;;;;;;;4.76;90.80;95533.19;4972512;28;20454;-81
2022/11/06 08:43:30;;;;;;;7.60;6.80;;;;;;;5.03;90.40;95545.78;4976912;28;20187;-82
2022/11/06 08:45:55;;;;;;;7.33;6.13;;;;;;;5.01;90.47;95550.22;4966931;28;20199;-81
2022/11/06 08:48:20;;;;;;;6.57;5.40;;;;;;;5.03;90.35;95564.59;4965341;28;20575;-81
2022/11/06 08:50:46;;;;;;;7.67;6.00;;;;;;;5.05;90.21;95577.38;4961358;28;20712;-81
2022/11/06 08:53:11;;;;;;;5.70;4.80;;;;;;;5.03;90.48;95595.50;4968091;28;20223;-81
2022/11/06 08:55:38;;;;;;;7.57;6.17;;;;;;;5.47;89.18;95631.75;4967940;28;20685;-82
2022/11/06 08:58:04;;;;;;;7.00;4.93;;;;;;;5.58;88.95;95634.38;4962005;28;20187;-82
2022/11/06 09:00:29;;;;;;;8.27;6.17;;;;;;;5.60;89.93;95623.03;4959535;28;20213;-83
2022/11/06 09:02:59;;;;;;;11.47;6.20;;;;;;;5.79;88.82;95616.47;4956851;28;20290;-82
2022/11/06 09:05:25;;;;;;;9.63;5.83;;;;;;;5.94;88.16;95615.34;4962653;28;20231;-82
2022/11/06 09:07:50;;;;;;;5.30;4.47;;;;;;;6.03;87.22;95611.25;4960613;28;20205;-81
2022/11/06 09:10:15;;;;;;;5.83;4.60;;;;;;;6.06;85.33;95590.38;4968856;28;20199;-81
2022/11/06 09:12:41;;;;;;;5.13;4.53;;;;;;;6.20;85.91;95587.53;4987784;28;20199;-82
2022/11/06 09:15:07;;;;;;;4.83;4.10;;;;;;;6.23;85.26;95582.97;4966392;28;20188;-82
2022/11/06 09:17:32;;;;;;;5.17;4.20;;;;;;;6.38;85.19;95573.19;4952200;28;20762;-82
2022/11/06 09:19:57;;;;;;;8.57;4.40;;;;;;;6.58;83.73;95570.78;4971289;28;20646;-83
2022/11/06 09:22:23;;;;;;;5.33;4.77;;;;;;;6.73;83.52;95572.97;4954939;28;20216;-83
2022/11/06 09:24:48;;;;;;;6.57;4.17;;;;;;;6.87;84.53;95573.59;4970459;28;20208;-81
2022/11/06 09:27:17;;;;;;;5.17;3.83;;;;;;;6.86;83.61;95556.47;4979851;28;20240;-83
2022/11/06 09:29:43;;;;;;;5.30;4.73;;;;;;;7.19;83.51;95545.16;4976314;28;20220;-83
2022/11/06 09:32:09;;;;;;;5.70;4.23;;;;;;;7.31;82.62;95538.97;4962270;28;20228;-81
2022/11/06 09:34:34;;;;;;;4.97;4.17;;;;;;;7.26;81.82;95533.38;4973057;28;20197;-81
2022/11/06 09:37:03;;;;;;;5.27;4.60;;;;;;;7.45;82.11;95538.66;4975032;28;20207;-82
2022/11/06 09:39:28;;;;;;;6.87;4.00;;;;;;;7.61;81.31;95546.75;4971612;28;20187;-81
2022/11/06 09:42:00;;;;;;;6.67;5.43;;;;;;;7.62;81.14;95539.81;4989791;28;20204;-82
2022/11/06 09:44:36;;;;;;;5.53;4.97;;;;;;;7.73;80.11;95531.97;4975839;28;20195;-81
2022/11/06 09:47:05;;;;;;;5.47;4.90;;;;;;;7.65;80.23;95527.44;4986669;28;20196;-82
2022/11/06 09:49:36;;;;;;;6.13;5.40;;;;;;;7.80;80.77;95519.34;4963869;28;20666;-82
2022/11/06 09:52:38;;;;;;;5.43;4.57;;;;;;;7.96;79.34;95517.09;4982998;28;20231;-81
2022/11/06 09:55:21;;;;;;;5.23;3.70;;;;;;;7.93;79.90;95514.75;4986292;28;20185;-82
2022/11/06 09:57:56;;;;;;;4.77;3.90;;;;;;;8.00;80.02;95515.03;4974227;28;20215;-82
2022/11/06 10:00:21;;;;;;;4.93;3.43;;;;;;;8.14;78.66;95499.16;4975452;28;20579;-81
2022/11/06 10:02:55;;;;;;;4.47;3.90;;;;;;;8.10;78.62;95498.59;4985316;28;20189;-81
2022/11/06 10:05:34;;;;;;;5.57;4.43;;;;;;;8.18;78.93;95487.56;4964164;28;20192;-81
2022/11/06 10:08:14;;;;;;;6.43;4.53;;;;;;;8.02;79.63;95479.50;4962318;28;20216;-82
2022/11/06 10:10:48;;;;;;;6.10;5.03;;;;;;;8.04;79.91;95477.59;4958444;28;20208;-82
2022/11/06 10:13:32;;;;;;;4.73;4.23;;;;;;;8.13;78.30;95472.47;4972368;28;20216;-82
2022/11/06 10:16:03;;;;;;;4.70;4.20;;;;;;;8.12;77.32;95463.06;4985605;28;20255;-81
2022/11/06 10:18:49;;;;;;;5.20;4.17;;;;;;;7.84;77.80;95459.47;4983787;28;20735;-82
2022/11/06 10:21:18;;;;;;;5.50;4.13;;;;;;;7.89;77.72;95448.75;4965779;28;20219;-82
2022/11/06 10:23:56;;;;;;;4.00;3.60;;;;;;;7.91;78.01;95439.91;4985676;28;20224;-82
2022/11/06 10:26:35;;;;;;;5.43;4.17;;;;;;;8.08;77.00;95422.91;4974948;28;20246;-82
2022/11/06 10:29:28;;;;;;;4.67;3.17;;;;;;;8.17;77.22;95414.31;4958752;28;20296;-82
2022/11/06 10:32:22;;;;;;;4.60;3.60;;;;;;;7.93;76.02;95398.38;4986261;28;20251;-82
2022/11/06 10:35:19;;;;;;;4.93;4.43;;;;;;;8.02;76.66;95407.91;4957904;28;20197;-81
2022/11/06 10:37:51;;;;;;;4.10;3.33;;;;;;;8.22;76.79;95401.00;4957271;28;20580;-82
2022/11/06 10:40:18;;;;;;;5.47;4.97;;;;;;;8.30;77.25;95397.69;4945594;28;20614;-82
2022/11/06 10:42:45;;;;;;;6.03;4.37;;;;;;;8.30;76.36;95384.75;4972521;28;20196;-81
2022/11/06 10:45:14;;;;;;;4.60;3.87;;;;;;;8.28;76.59;95373.75;4974504;28;20193;-81
2022/11/06 10:47:44;;;;;;;4.60;3.90;;;;;;;8.28;75.67;95371.16;4945829;28;20200;-82
2022/11/06 10:50:12;;;;;;;4.30;3.90;;;;;;;8.27;76.06;95372.13;4958804;28;20204;-82
2022/11/06 10:52:47;;;;;;;4.53;4.13;;;;;;;8.27;75.79;95374.72;4983995;28;20187;-81
2022/11/06 10:55:30;;;;;;;4.53;3.60;;;;;;;8.20;75.60;95371.84;4957798;28;20196;-82
2022/11/06 10:58:02;;;;;;;4.00;3.70;;;;;;;8.18;75.73;95366.00;4972053;28;20180;-82
2022/11/06 11:00:27;;;;;;;3.93;3.33;;;;;;;8.32;74.78;95362.19;4974343;28;20267;-82
2022/11/06 11:02:58;;;;;;;3.50;3.20;;;;;;;8.24;74.05;95355.94;4973843;28;20669;-82
2022/11/06 11:05:25;;;;;;;4.00;3.60;;;;;;;8.33;73.77;95358.63;4979283;28;20227;-81
2022/11/06 11:07:50;;;;;;;3.50;3.20;;;;;;;8.32;74.10;95352.66;4952422;28;20208;-81
2022/11/06 11:10:21;;;;;;;3.27;2.93;;;;;;;8.48;74.39;95344.31;4986515;28;20266;-82
2022/11/06 11:12:47;;;;;;;3.70;3.40;;;;;;;8.60;72.68;95332.06;4990472;28;20295;-82
2022/11/06 11:15:14;;;;;;;3.60;3.30;;;;;;;8.56;72.49;95326.31;4955231;28;20192;-80
2022/11/06 11:17:40;;;;;;;3.07;2.87;;;;;;;8.61;71.88;95328.50;4954765;28;20201;-80
2022/11/06 11:20:29;;;;;;;3.20;2.90;;;;;;;8.75;72.08;95336.66;4971684;28;20292;-80
2022/11/06 11:23:24;;;;;;;4.37;2.60;;;;;;;8.78;71.99;95315.66;4972081;28;20185;-80
2022/11/06 11:25:52;;;;;;;3.43;2.93;;;;;;;8.93;71.81;95321.19;4953150;28;20276;-80
2022/11/06 11:28:31;;;;;;;3.27;2.97;;;;;;;8.91;70.88;95311.91;4954537;28;20208;-80
2022/11/06 11:31:05;;;;;;;3.00;2.70;;;;;;;8.93;70.33;95320.38;4938244;28;20224;-80
2022/11/06 11:33:31;;;;;;;4.33;3.20;;;;;;;8.86;70.90;95322.69;4938759;28;20192;-81
2022/11/06 11:35:56;;;;;;;2.93;2.73;;;;;;;8.59;72.05;95320.88;4944235;28;20230;-80
2022/11/06 11:38:22;;;;;;;3.57;2.90;;;;;;;8.95;71.92;95316.66;4941907;28;20240;-81
2022/11/06 11:40:48;;;;;;;3.80;2.97;;;;;;;8.69;71.59;95313.09;4939685;28;20300;-81
2022/11/06 11:43:23;;;;;;;3.93;3.23;;;;;;;8.91;72.03;95309.31;4938455;28;20229;-80
2022/11/06 11:46:00;;;;;;;3.27;2.73;;;;;;;9.01;71.31;95308.34;4940604;28;20234;-80
2022/11/06 11:48:25;;;;;;;3.83;3.30;;;;;;;8.95;71.96;95300.31;4970071;28;20223;-80
2022/11/06 11:50:51;;;;;;;6.17;4.10;;;;;;;9.15;71.95;95294.06;4964458;28;20220;-82
2022/11/06 11:53:20;;;;;;;3.30;3.00;;;;;;;9.21;72.25;95288.31;4951978;28;20207;-81
2022/11/06 11:55:48;;;;;;;3.20;2.80;;;;;;;9.29;72.02;95288.41;4940583;28;20225;-80
2022/11/06 11:58:22;;;;;;;3.53;3.23;;;;;;;9.08;73.26;95287.81;4938825;28;20252;-81
2022/11/06 12:00:50;;;;;;;4.00;3.40;;;;;;;8.73;74.74;95278.19;4952384;28;20214;-81